Banner Elk, NC (28604)

12:11 AM EST on March 02, 2015 (GMT -0500)
Sugar Mountain | Change Station
CLOSE
Current Station
Personal Weather Station
Location: Banner Elk, NC
Elevation: 4910 ft
Nearby Weather Stations

Elev 4910 ft 36.12 °N, 81.87 °W | Updated 6 minutes ago

Overcast
Overcast
42.7 °F
Feels Like 40 °F
N
4.0
Wind Variable Wind from NNE
Gusts 4.0 mph

Today
High -- | Low -- °F
--% Chance of Precip.
Yesterday
High -- | Low -- °F
Precip. -- in
6:56 AM 6:22 PM
Waxing Gibbous, 89% visible
Pressure 30.25 in
Visibility 10.0 miles
Clouds Mostly Cloudy 500 ft
Overcast 1000 ft
Windchill 40 °F
Dew Point 42 °F
Humidity 96%
Rainfall 0.00 in
Snow Depth Not available.
UV 0 out of 12
Pollen 1.60 out of 12
Air Quality Not available.
Flu Activity Not available.
METAR KTNB 020455Z AUTO 28011G14KT 10SM BKN005 OVC010 08/08 A3025 RMK AO2 T00830081

More Conditions Fewer Conditions

Pressure 30.25 in
Visibility 10.0 miles
Clouds Mostly Cloudy 500 ft
Overcast 1000 ft
Windchill 40 °F
Dew Point 42 °F
Humidity 96%
Rainfall 0.00 in
Snow Depth Not available.
UV 0 out of 12
Pollen 1.60 out of 12
Air Quality Not available.
Flu Activity Not available.
METAR KTNB 020455Z AUTO 28011G14KT 10SM BKN005 OVC010 08/08 A3025 RMK AO2 T00830081

More Conditions Fewer Conditions

10-Day Weather Forecast

Almanac

Astronomy

Mar. 02, 2015 Rise Set
Actual Time
Civil Twilight
Nautical Twilight
Astronomical Twilight
Moon
Length of Visible Light
Length of Day
Tomorrow will be .
, % of the Moon is Illuminated

Today's Extremes

State Highs State Lows

Community

WunderPhotos

Upload Photos

1,801,729 photos uploaded!

WunderBlogs® & News

Nearby

Air Quality

  Air Quality AQ Index Pollutant
Not available.

Snow Depth

Station Depth Elevation

Earthquake Activity

City Distance Mag. Time & Date
Minimum magnitude displayed is 2.5.

Coastal Water Temperatures

Place Temperature

Nearby Weather Stations